Time;durP1;ratioP1;P1;durP2;ratioP2;P2;SDS_P1;SDS_P2;PMS_P1;PMS_P2;Temp;Humidity;BMP_temperature;BMP_pressure;BME280_temperature;BME280_humidity;BME280_pressure;Samples;Min_cycle;Max_cycle;Signal;HPM_P1;HPM_P2
2023/09/17 00:02:09;;;;;;;;;;;17.50;99.90;;;;;;5081757;28;19927;-77
2023/09/17 00:04:36;;;;;;;;;;;17.40;99.90;;;;;;5078738;28;20178;-76
2023/09/17 00:07:03;;;;;;;;;;;17.40;99.90;;;;;;5083759;28;19935;-77
2023/09/17 00:09:31;;;;;;;;;;;17.40;99.90;;;;;;5086396;28;19955;-75
2023/09/17 00:11:58;;;;;;;;;;;17.40;99.90;;;;;;5094121;28;19995;-76
2023/09/17 00:14:24;;;;;;;;;;;17.40;99.90;;;;;;5090709;28;20241;-76
2023/09/17 00:16:51;;;;;;;;;;;17.30;99.90;;;;;;5083054;28;19984;-75
2023/09/17 00:19:19;;;;;;;;;;;17.30;99.90;;;;;;5084398;28;19987;-75
2023/09/17 00:21:46;;;;;;;;;;;17.30;99.90;;;;;;5084769;28;19979;-75
2023/09/17 00:24:13;;;;;;;;;;;17.30;99.90;;;;;;5079814;28;19980;-76
2023/09/17 00:26:40;;;;;;;;;;;17.30;99.90;;;;;;5082765;28;19921;-76
2023/09/17 00:29:07;;;;;;;;;;;17.40;99.90;;;;;;5083414;28;19956;-76
2023/09/17 00:31:34;;;;;;;;;;;17.40;99.90;;;;;;5082949;28;19964;-77
2023/09/17 00:34:01;;;;;;;;;;;17.40;99.90;;;;;;5083195;28;19983;-76
2023/09/17 00:36:27;;;;;;;;;;;17.30;99.90;;;;;;5082700;28;19983;-77
2023/09/17 00:38:54;;;;;;;;;;;17.30;99.90;;;;;;5083270;28;19927;-76
2023/09/17 00:41:20;;;;;;;;;;;17.30;99.90;;;;;;5082935;28;19921;-76
2023/09/17 00:43:48;;;;;;;;;;;17.30;99.90;;;;;;5082644;28;19921;-75
2023/09/17 00:46:15;;;;;;;;;;;17.30;99.90;;;;;;5082662;28;19983;-77
2023/09/17 00:48:42;;;;;;;;;;;17.30;99.90;;;;;;5083107;28;19921;-75
2023/09/17 00:51:09;;;;;;;;;;;17.30;99.90;;;;;;5083026;28;19959;-75
2023/09/17 00:53:36;;;;;;;;;;;17.30;99.90;;;;;;5079121;28;20185;-76
2023/09/17 00:56:03;;;;;;;;;;;17.20;99.90;;;;;;5082626;28;19983;-76
2023/09/17 00:58:31;;;;;;;;;;;17.20;99.90;;;;;;5082717;28;21175;-76
2023/09/17 01:00:59;;;;;;;;;;;17.20;99.90;;;;;;5082912;28;20210;-76
2023/09/17 01:03:27;;;;;;;;;;;17.10;99.90;;;;;;5082859;28;19963;-75
2023/09/17 01:05:54;;;;;;;;;;;17.10;99.90;;;;;;5082429;28;20122;-75
2023/09/17 01:08:22;;;;;;;;;;;17.00;99.90;;;;;;5082643;28;19967;-76
2023/09/17 01:10:49;;;;;;;;;;;17.00;99.90;;;;;;5083295;28;20153;-76
2023/09/17 01:13:17;;;;;;;;;;;16.90;99.90;;;;;;5086917;28;19987;-76
2023/09/17 01:15:43;;;;;;;;;;;16.90;99.90;;;;;;5086732;28;19956;-77
2023/09/17 01:18:11;;;;;;;;;;;16.90;99.90;;;;;;5091458;28;19927;-74
2023/09/17 01:20:41;;;;;;;;;;;16.90;99.90;;;;;;5086965;28;19952;-76
2023/09/17 01:23:11;;;;;;;;;;;16.90;99.90;;;;;;5086361;28;19924;-75
2023/09/17 01:25:42;;;;;;;;;;;16.90;99.90;;;;;;5081573;28;20234;-75
2023/09/17 01:28:12;;;;;;;;;;;16.90;99.90;;;;;;5085548;28;19987;-75
2023/09/17 01:30:41;;;;;;;;;;;16.90;99.90;;;;;;5085470;28;20114;-75
2023/09/17 01:33:09;;;;;;;;;;;16.80;99.90;;;;;;5085933;28;19924;-76
2023/09/17 01:35:39;;;;;;;;;;;16.80;99.90;;;;;;5086325;28;20145;-76
2023/09/17 01:38:08;;;;;;;;;;;16.90;99.90;;;;;;5088949;28;19963;-76
2023/09/17 01:40:35;;;;;;;;;;;16.90;99.90;;;;;;5086270;28;19927;-76
2023/09/17 01:43:02;;;;;;;;;;;16.80;99.90;;;;;;5086332;28;19956;-75
2023/09/17 01:45:32;;;;;;;;;;;16.90;99.90;;;;;;5085258;28;19924;-75
2023/09/17 01:48:00;;;;;;;;;;;16.90;99.90;;;;;;5086028;28;19924;-75
2023/09/17 01:50:28;;;;;;;;;;;16.90;99.90;;;;;;5086087;28;19929;-76
2023/09/17 01:52:55;;;;;;;;;;;16.90;99.90;;;;;;5085617;28;20249;-75
2023/09/17 01:55:22;;;;;;;;;;;16.90;99.90;;;;;;5091674;28;20000;-74
2023/09/17 01:57:49;;;;;;;;;;;16.90;99.90;;;;;;5092629;28;20202;-74
2023/09/17 02:00:16;;;;;;;;;;;17.00;99.90;;;;;;5094893;28;19920;-76
2023/09/17 02:02:47;;;;;;;;;;;17.00;99.90;;;;;;5085731;28;19920;-76
2023/09/17 02:05:13;;;;;;;;;;;17.00;99.90;;;;;;5082022;28;19924;-75
2023/09/17 02:07:40;;;;;;;;;;;17.00;99.90;;;;;;5085856;28;19988;-74
2023/09/17 02:10:07;;;;;;;;;;;17.00;99.90;;;;;;5085634;28;19991;-75
2023/09/17 02:12:34;;;;;;;;;;;16.90;99.90;;;;;;5085575;28;19996;-76
2023/09/17 02:15:01;;;;;;;;;;;16.90;99.90;;;;;;5084727;28;19984;-75
2023/09/17 02:17:28;;;;;;;;;;;16.80;99.90;;;;;;5085511;28;19956;-75
2023/09/17 02:19:56;;;;;;;;;;;16.80;99.90;;;;;;5085129;28;19920;-75
2023/09/17 02:22:23;;;;;;;;;;;16.80;99.90;;;;;;5083616;28;19960;-76
2023/09/17 02:24:49;;;;;;;;;;;16.80;99.90;;;;;;5087556;28;20117;-75
2023/09/17 02:27:16;;;;;;;;;;;16.80;99.90;;;;;;5084869;28;19988;-76
2023/09/17 02:29:43;;;;;;;;;;;16.70;99.90;;;;;;5085062;28;20214;-75
2023/09/17 02:32:10;;;;;;;;;;;16.80;99.90;;;;;;5084928;28;19972;-74
2023/09/17 02:34:38;;;;;;;;;;;16.70;99.90;;;;;;5084450;28;19920;-75
2023/09/17 02:37:06;;;;;;;;;;;16.70;99.90;;;;;;5085124;28;20004;-76
2023/09/17 02:39:35;;;;;;;;;;;16.70;99.90;;;;;;5085052;28;19980;-75
2023/09/17 02:42:02;;;;;;;;;;;16.70;99.90;;;;;;5084970;28;19935;-75
2023/09/17 02:44:28;;;;;;;;;;;16.70;99.90;;;;;;5084498;28;19920;-75
2023/09/17 02:46:55;;;;;;;;;;;16.70;99.90;;;;;;5084648;28;20236;-75
2023/09/17 02:49:22;;;;;;;;;;;16.70;99.90;;;;;;5084900;28;19927;-77
2023/09/17 02:51:49;;;;;;;;;;;16.70;99.90;;;;;;5084324;28;19920;-75
2023/09/17 02:54:17;;;;;;;;;;;16.70;99.90;;;;;;5084381;28;19920;-75
2023/09/17 02:56:43;;;;;;;;;;;16.60;99.90;;;;;;5084487;28;19920;-74
2023/09/17 02:59:10;;;;;;;;;;;16.60;99.90;;;;;;5084503;28;19927;-74
2023/09/17 03:01:38;;;;;;;;;;;16.60;99.90;;;;;;5084703;28;19921;-76
2023/09/17 03:04:05;;;;;;;;;;;16.60;99.90;;;;;;5083412;28;19921;-75
2023/09/17 03:06:32;;;;;;;;;;;16.60;99.90;;;;;;5087363;28;19970;-75
2023/09/17 03:08:58;;;;;;;;;;;16.60;99.90;;;;;;5084530;28;20143;-76
2023/09/17 03:11:27;;;;;;;;;;;16.60;99.90;;;;;;5084555;28;19920;-75
2023/09/17 03:13:56;;;;;;;;;;;16.60;99.90;;;;;;5084153;28;19924;-76
2023/09/17 03:16:23;;;;;;;;;;;16.60;99.90;;;;;;5083999;28;19956;-76
2023/09/17 03:18:49;;;;;;;;;;;16.60;99.90;;;;;;5080982;28;19979;-76
2023/09/17 03:21:16;;;;;;;;;;;16.60;99.90;;;;;;5082556;28;19928;-75
2023/09/17 03:23:43;;;;;;;;;;;16.60;99.90;;;;;;5089248;28;19925;-75
2023/09/17 03:26:09;;;;;;;;;;;16.60;99.90;;;;;;5083749;28;19942;-75
2023/09/17 03:28:37;;;;;;;;;;;16.60;99.90;;;;;;5078933;28;19929;-75
2023/09/17 03:31:04;;;;;;;;;;;16.60;99.90;;;;;;5088805;28;19959;-76
2023/09/17 03:33:31;;;;;;;;;;;16.60;99.90;;;;;;5083851;28;19999;-75
2023/09/17 03:35:58;;;;;;;;;;;16.60;99.90;;;;;;5083145;28;19924;-76
2023/09/17 03:38:25;;;;;;;;;;;16.60;99.90;;;;;;5083705;28;19920;-76
2023/09/17 03:40:51;;;;;;;;;;;16.50;99.90;;;;;;5083622;28;20265;-76
2023/09/17 03:43:18;;;;;;;;;;;16.50;99.90;;;;;;5084123;28;19920;-76
2023/09/17 03:45:47;;;;;;;;;;;16.50;99.90;;;;;;5083262;28;20265;-76
2023/09/17 03:48:14;;;;;;;;;;;16.50;99.90;;;;;;5083880;28;20160;-76
2023/09/17 03:50:42;;;;;;;;;;;16.40;99.90;;;;;;5083918;28;19952;-76
2023/09/17 03:53:09;;;;;;;;;;;16.40;99.90;;;;;;5083729;28;19920;-75
2023/09/17 03:55:36;;;;;;;;;;;16.40;99.90;;;;;;5078436;28;19979;-75
2023/09/17 03:58:03;;;;;;;;;;;16.30;99.90;;;;;;5083558;28;19987;-76
2023/09/17 04:00:30;;;;;;;;;;;16.30;99.90;;;;;;5083324;28;19928;-77
2023/09/17 04:02:59;;;;;;;;;;;16.30;99.90;;;;;;5082115;28;19991;-76
2023/09/17 04:05:26;;;;;;;;;;;16.30;99.90;;;;;;5085873;28;19951;-76
2023/09/17 04:07:53;;;;;;;;;;;16.30;99.90;;;;;;5083729;28;19987;-75
2023/09/17 04:10:19;;;;;;;;;;;16.30;99.90;;;;;;5083715;28;19983;-75
2023/09/17 04:12:47;;;;;;;;;;;16.30;99.90;;;;;;5083779;28;19926;-76
2023/09/17 04:15:16;;;;;;;;;;;16.20;99.90;;;;;;5080190;28;19924;-76
2023/09/17 04:17:43;;;;;;;;;;;16.20;99.90;;;;;;5084657;28;19928;-75
2023/09/17 04:20:13;;;;;;;;;;;16.20;99.90;;;;;;5083648;28;19921;-74
2023/09/17 04:22:40;;;;;;;;;;;16.20;99.90;;;;;;5083254;28;19927;-77
2023/09/17 04:25:09;;;;;;;;;;;16.20;99.90;;;;;;5084144;28;19934;-77
2023/09/17 04:27:36;;;;;;;;;;;16.20;99.90;;;;;;5084465;28;19920;-77
2023/09/17 04:30:05;;;;;;;;;;;16.20;99.90;;;;;;5080856;28;19920;-76
2023/09/17 04:32:33;;;;;;;;;;;16.10;99.90;;;;;;5084037;28;20177;-77
2023/09/17 04:35:00;;;;;;;;;;;16.20;99.90;;;;;;5082873;28;19947;-77
2023/09/17 04:37:28;;;;;;;;;;;16.10;99.90;;;;;;5082992;28;19920;-76
2023/09/17 04:39:55;;;;;;;;;;;16.00;99.90;;;;;;5083248;28;19987;-74
2023/09/17 04:42:21;;;;;;;;;;;16.00;99.90;;;;;;5082860;28;20232;-75
2023/09/17 04:44:48;;;;;;;;;;;16.00;99.90;;;;;;5082447;28;19927;-70
2023/09/17 04:47:14;;;;;;;;;;;16.00;99.90;;;;;;5082933;28;19920;-74
2023/09/17 04:49:41;;;;;;;;;;;16.00;99.90;;;;;;5085312;28;20210;-74
2023/09/17 04:52:08;;;;;;;;;;;15.90;99.90;;;;;;5086965;28;19967;-74
2023/09/17 04:54:36;;;;;;;;;;;15.90;99.90;;;;;;5085839;28;19920;-75
2023/09/17 04:57:03;;;;;;;;;;;15.90;99.90;;;;;;5086809;28;19959;-74
2023/09/17 04:59:30;;;;;;;;;;;15.90;99.90;;;;;;5091630;28;19939;-74
2023/09/17 05:01:57;;;;;;;;;;;15.80;99.90;;;;;;5086785;28;19959;-73
2023/09/17 05:04:24;;;;;;;;;;;15.90;99.90;;;;;;5086195;28;20117;-74
2023/09/17 05:06:50;;;;;;;;;;;15.80;99.90;;;;;;5086399;28;19959;-74
2023/09/17 05:09:17;;;;;;;;;;;15.80;99.90;;;;;;5087603;28;20119;-74
2023/09/17 05:11:45;;;;;;;;;;;15.80;99.90;;;;;;5095356;28;19921;-74
2023/09/17 05:14:11;;;;;;;;;;;15.80;99.90;;;;;;5086228;28;19956;-75
2023/09/17 05:16:38;;;;;;;;;;;15.70;99.90;;;;;;5086837;28;19995;-73
2023/09/17 05:19:05;;;;;;;;;;;15.70;99.90;;;;;;5083660;28;19959;-75
2023/09/17 05:21:32;;;;;;;;;;;15.70;99.90;;;;;;5086090;28;19924;-75
2023/09/17 05:23:59;;;;;;;;;;;15.70;99.90;;;;;;5084439;28;19920;-74
2023/09/17 05:26:25;;;;;;;;;;;15.70;99.90;;;;;;5085716;28;19987;-75
2023/09/17 05:28:53;;;;;;;;;;;15.70;99.90;;;;;;5086200;28;19921;-75
2023/09/17 05:31:20;;;;;;;;;;;15.70;99.90;;;;;;5084544;28;19956;-74
2023/09/17 05:33:46;;;;;;;;;;;15.70;99.90;;;;;;5086160;28;19955;-74
2023/09/17 05:36:13;;;;;;;;;;;15.70;99.90;;;;;;5085569;28;20347;-75
2023/09/17 05:38:40;;;;;;;;;;;15.70;99.90;;;;;;5086160;28;19921;-75
2023/09/17 05:41:07;;;;;;;;;;;15.70;99.90;;;;;;5085727;28;20217;-75
2023/09/17 05:43:34;;;;;;;;;;;15.70;99.90;;;;;;5086238;28;19987;-76
2023/09/17 05:46:02;;;;;;;;;;;15.70;99.90;;;;;;5091224;28;19924;-75
2023/09/17 05:48:29;;;;;;;;;;;15.70;99.90;;;;;;5086027;28;19951;-75
2023/09/17 05:50:55;;;;;;;;;;;15.70;99.90;;;;;;5086115;28;20087;-75
2023/09/17 05:53:22;;;;;;;;;;;15.70;99.90;;;;;;5086004;28;19999;-74
2023/09/17 05:55:49;;;;;;;;;;;15.70;99.90;;;;;;5085371;28;19928;-74
2023/09/17 05:58:16;;;;;;;;;;;15.70;99.90;;;;;;5085857;28;19924;-76
2023/09/17 06:00:42;;;;;;;;;;;15.70;99.90;;;;;;5085913;28;20155;-76
2023/09/17 06:03:10;;;;;;;;;;;15.70;99.90;;;;;;5086175;28;19926;-76
2023/09/17 06:05:37;;;;;;;;;;;15.80;99.90;;;;;;5085596;28;19952;-76
2023/09/17 06:08:04;;;;;;;;;;;15.80;99.90;;;;;;5085530;28;19979;-74
2023/09/17 06:10:31;;;;;;;;;;;15.80;99.90;;;;;;5085199;28;19959;-75
2023/09/17 06:12:58;;;;;;;;;;;15.80;99.90;;;;;;5085561;28;19920;-75
2023/09/17 06:15:25;;;;;;;;;;;15.90;99.90;;;;;;5084737;28;19979;-74
2023/09/17 06:17:51;;;;;;;;;;;15.90;99.90;;;;;;5085120;28;19966;-74
2023/09/17 06:20:19;;;;;;;;;;;15.90;99.90;;;;;;5093970;28;19920;-75
2023/09/17 06:22:48;;;;;;;;;;;15.90;99.90;;;;;;5085057;28;19928;-75
2023/09/17 06:25:15;;;;;;;;;;;16.00;99.90;;;;;;5081724;28;19920;-75
2023/09/17 06:27:42;;;;;;;;;;;16.00;99.90;;;;;;5085002;28;19963;-73
2023/09/17 06:30:09;;;;;;;;;;;16.00;99.90;;;;;;5088457;28;19920;-74
2023/09/17 06:32:36;;;;;;;;;;;16.10;99.90;;;;;;5088632;28;19920;-75
2023/09/17 06:35:03;;;;;;;;;;;16.10;99.90;;;;;;5085409;28;20256;-74
2023/09/17 06:37:31;;;;;;;;;;;16.10;99.90;;;;;;5085176;28;19983;-74
2023/09/17 06:39:58;;;;;;;;;;;16.20;99.90;;;;;;5090019;28;19987;-75
2023/09/17 06:42:25;;;;;;;;;;;16.20;99.90;;;;;;5095166;28;19928;-74
2023/09/17 06:44:51;;;;;;;;;;;16.30;99.90;;;;;;5089491;28;19955;-75
2023/09/17 06:47:18;;;;;;;;;;;16.30;99.90;;;;;;5084739;28;19920;-74
2023/09/17 06:49:45;;;;;;;;;;;16.30;99.90;;;;;;5084973;28;19920;-75
2023/09/17 06:52:11;;;;;;;;;;;16.40;99.90;;;;;;5089130;28;19962;-75
2023/09/17 06:54:39;;;;;;;;;;;16.40;99.90;;;;;;5087083;28;19984;-75
2023/09/17 06:57:06;;;;;;;;;;;16.50;99.90;;;;;;5089567;28;19920;-75
2023/09/17 06:59:33;;;;;;;;;;;16.60;99.90;;;;;;5083836;28;20210;-73
2023/09/17 07:01:59;;;;;;;;;;;16.70;99.90;;;;;;5084775;28;19920;-75
2023/09/17 07:04:26;;;;;;;;;;;16.90;99.90;;;;;;5083771;28;19987;-75
2023/09/17 07:06:53;;;;;;;;;;;17.00;99.90;;;;;;5084173;28;20214;-74
2023/09/17 07:09:20;;;;;;;;;;;17.10;99.90;;;;;;5084495;28;19920;-75
2023/09/17 07:11:48;;;;;;;;;;;17.20;99.90;;;;;;5083836;28;20300;-74
2023/09/17 07:14:14;;;;;;;;;;;17.30;99.90;;;;;;5088697;28;19958;-75
2023/09/17 07:16:41;;;;;;;;;;;17.40;99.90;;;;;;5084530;28;19920;-74
2023/09/17 07:19:08;;;;;;;;;;;17.50;99.90;;;;;;5084348;28;19927;-74
2023/09/17 07:21:34;;;;;;;;;;;17.60;99.90;;;;;;5083972;28;19943;-75
2023/09/17 07:24:01;;;;;;;;;;;17.70;99.90;;;;;;5084149;28;19921;-73
2023/09/17 07:26:28;;;;;;;;;;;17.90;99.90;;;;;;5083588;28;19920;-75
2023/09/17 07:28:56;;;;;;;;;;;18.00;99.90;;;;;;5083846;28;20240;-75
2023/09/17 07:31:23;;;;;;;;;;;18.00;99.90;;;;;;5089069;28;19924;-75
2023/09/17 07:33:49;;;;;;;;;;;18.10;99.90;;;;;;5088828;28;19921;-69
2023/09/17 07:36:16;;;;;;;;;;;18.20;99.90;;;;;;5083855;28;19988;-75
2023/09/17 07:38:42;;;;;;;;;;;18.40;99.90;;;;;;5084409;28;19983;-74
2023/09/17 07:41:09;;;;;;;;;;;18.50;99.90;;;;;;5087215;28;19927;-75
2023/09/17 07:43:36;;;;;;;;;;;18.60;99.90;;;;;;5083918;28;19920;-75
2023/09/17 07:46:05;;;;;;;;;;;18.60;99.90;;;;;;5083611;28;19920;-74
2023/09/17 07:48:31;;;;;;;;;;;18.70;99.90;;;;;;5083708;28;19924;-75
2023/09/17 07:50:58;;;;;;;;;;;18.80;99.90;;;;;;5082270;28;19999;-75
2023/09/17 07:53:25;;;;;;;;;;;18.90;99.90;;;;;;5083661;28;20297;-74
2023/09/17 07:55:52;;;;;;;;;;;19.10;99.90;;;;;;5083428;28;19921;-74
2023/09/17 07:58:19;;;;;;;;;;;19.20;99.90;;;;;;5083859;28;20256;-73
2023/09/17 08:00:46;;;;;;;;;;;19.30;99.90;;;;;;5083632;28;20012;-74
2023/09/17 08:03:14;;;;;;;;;;;19.40;99.90;;;;;;5080575;28;19928;-75
2023/09/17 08:05:41;;;;;;;;;;;19.50;99.90;;;;;;5083069;28;20289;-76
2023/09/17 08:08:08;;;;;;;;;;;19.60;99.90;;;;;;5083829;28;19958;-77
2023/09/17 08:10:34;;;;;;;;;;;19.70;99.90;;;;;;5083454;28;19991;-75
2023/09/17 08:13:01;;;;;;;;;;;19.80;99.90;;;;;;5083777;28;19962;-74
2023/09/17 08:15:29;;;;;;;;;;;19.90;99.90;;;;;;5083145;28;19927;-76
2023/09/17 08:17:56;;;;;;;;;;;20.10;99.90;;;;;;5083756;28;19928;-73
2023/09/17 08:20:24;;;;;;;;;;;20.20;99.90;;;;;;5083727;28;20167;-74
2023/09/17 08:22:51;;;;;;;;;;;20.30;99.90;;;;;;5083744;28;19952;-75
2023/09/17 08:25:18;;;;;;;;;;;20.40;99.90;;;;;;5091846;28;19927;-75
2023/09/17 08:27:44;;;;;;;;;;;20.50;99.90;;;;;;5091165;28;19959;-74
2023/09/17 08:30:12;;;;;;;;;;;20.60;99.90;;;;;;5094290;28;19979;-74
2023/09/17 08:32:39;;;;;;;;;;;20.70;99.90;;;;;;5087482;28;19927;-74
2023/09/17 08:35:07;;;;;;;;;;;20.80;99.90;;;;;;5086871;28;20236;-74
2023/09/17 08:37:36;;;;;;;;;;;20.90;99.90;;;;;;5087685;28;19920;-74
2023/09/17 08:40:08;;;;;;;;;;;21.00;99.90;;;;;;5092303;28;20209;-75
2023/09/17 08:42:34;;;;;;;;;;;21.10;99.90;;;;;;5087647;28;20301;-75
2023/09/17 08:45:03;;;;;;;;;;;21.20;99.90;;;;;;5086967;28;19984;-75
2023/09/17 08:47:29;;;;;;;;;;;21.40;99.90;;;;;;5087487;28;19942;-74
2023/09/17 08:49:56;;;;;;;;;;;21.50;99.90;;;;;;5086420;28;19959;-75
2023/09/17 08:52:23;;;;;;;;;;;21.60;99.90;;;;;;5086910;28;20175;-76
2023/09/17 08:54:51;;;;;;;;;;;21.70;99.90;;;;;;5086426;28;19963;-76
2023/09/17 08:57:20;;;;;;;;;;;21.70;99.90;;;;;;5087208;28;19956;-76
2023/09/17 08:59:50;;;;;;;;;;;21.80;99.90;;;;;;5086956;28;19979;-75
2023/09/17 09:02:19;;;;;;;;;;;21.80;99.90;;;;;;5086793;28;19963;-75
2023/09/17 09:04:50;;;;;;;;;;;21.80;99.90;;;;;;5086487;28;19983;-75
2023/09/17 09:07:17;;;;;;;;;;;21.90;99.90;;;;;;5087031;28;20161;-75
2023/09/17 09:09:46;;;;;;;;;;;21.90;99.90;;;;;;5087003;28;20121;-75
2023/09/17 09:12:14;;;;;;;;;;;22.00;99.90;;;;;;5083677;28;19958;-75
2023/09/17 09:14:41;;;;;;;;;;;22.10;99.90;;;;;;5090567;28;19927;-75
2023/09/17 09:17:08;;;;;;;;;;;22.20;99.90;;;;;;5086484;28;19927;-75
2023/09/17 09:19:34;;;;;;;;;;;22.30;99.90;;;;;;5086820;28;19921;-75
2023/09/17 09:22:01;;;;;;;;;;;22.40;99.90;;;;;;5086437;28;19952;-76
2023/09/17 09:24:29;;;;;;;;;;;22.60;99.90;;;;;;5085954;28;20000;-75
2023/09/17 09:26:58;;;;;;;;;;;22.70;99.90;;;;;;5086611;28;19948;-75
2023/09/17 09:29:26;;;;;;;;;;;22.80;99.90;;;;;;5084790;28;20152;-76
2023/09/17 09:31:53;;;;;;;;;;;22.90;99.90;;;;;;5086596;28;19920;-75
2023/09/17 09:34:20;;;;;;;;;;;23.00;99.90;;;;;;5085433;28;19920;-76
2023/09/17 09:36:47;;;;;;;;;;;23.00;99.90;;;;;;5086564;28;19927;-75
2023/09/17 09:39:15;;;;;;;;;;;23.10;99.90;;;;;;5086241;28;19951;-75
2023/09/17 09:41:42;;;;;;;;;;;23.10;99.90;;;;;;5086738;28;19928;-75
2023/09/17 09:44:08;;;;;;;;;;;23.10;99.90;;;;;;5086086;28;19920;-75
2023/09/17 09:46:36;;;;;;;;;;;23.20;99.90;;;;;;5086132;28;19963;-75
2023/09/17 09:49:04;;;;;;;;;;;23.20;99.90;;;;;;5092771;28;19956;-75
2023/09/17 09:51:31;;;;;;;;;;;23.20;99.90;;;;;;5084649;28;19939;-74
2023/09/17 09:53:58;;;;;;;;;;;23.30;99.90;;;;;;5085137;28;19927;-75
2023/09/17 09:56:27;;;;;;;;;;;23.40;99.90;;;;;;5085769;28;19983;-75
2023/09/17 09:58:54;;;;;;;;;;;23.40;99.90;;;;;;5085844;28;20137;-75
2023/09/17 10:01:21;;;;;;;;;;;23.50;99.90;;;;;;5086154;28;19952;-75
2023/09/17 10:03:50;;;;;;;;;;;23.60;99.90;;;;;;5091221;28;19983;-77
2023/09/17 10:06:17;;;;;;;;;;;23.70;99.90;;;;;;5095426;28;19927;-75
2023/09/17 10:08:44;;;;;;;;;;;23.70;99.90;;;;;;5085569;28;20244;-75
2023/09/17 10:11:11;;;;;;;;;;;23.80;99.90;;;;;;5085833;28;19952;-75
2023/09/17 10:13:38;;;;;;;;;;;23.80;99.90;;;;;;5085689;28;19967;-75
2023/09/17 10:16:05;;;;;;;;;;;24.00;99.90;;;;;;5089964;28;19920;-75
2023/09/17 10:18:36;;;;;;;;;;;24.10;99.90;;;;;;5085396;28;19928;-76
2023/09/17 10:21:05;;;;;;;;;;;24.30;99.90;;;;;;5085724;28;19962;-77
2023/09/17 10:23:33;;;;;;;;;;;24.50;99.90;;;;;;5085674;28;19984;-76
2023/09/17 10:25:59;;;;;;;;;;;24.60;99.90;;;;;;5084976;28;19963;-75
2023/09/17 10:28:26;;;;;;;;;;;24.70;99.90;;;;;;5085158;28;19980;-75
2023/09/17 10:30:54;;;;;;;;;;;24.70;99.90;;;;;;5086330;28;19959;-77
2023/09/17 10:33:22;;;;;;;;;;;24.70;99.90;;;;;;5086275;28;20170;-77
2023/09/17 10:35:49;;;;;;;;;;;24.80;99.90;;;;;;5085366;28;20238;-76
2023/09/17 10:38:17;;;;;;;;;;;24.90;99.90;;;;;;5090220;28;19975;-77
2023/09/17 10:40:44;;;;;;;;;;;25.10;99.90;;;;;;5089884;28;20082;-76
2023/09/17 10:43:12;;;;;;;;;;;25.20;99.90;;;;;;5085760;28;20262;-76
2023/09/17 10:45:40;;;;;;;;;;;25.40;99.90;;;;;;5088243;28;19959;-77
2023/09/17 10:48:08;;;;;;;;;;;25.50;99.90;;;;;;5084918;28;20237;-76
2023/09/17 10:50:36;;;;;;;;;;;25.60;99.90;;;;;;5087019;28;19943;-76
2023/09/17 10:53:04;;;;;;;;;;;25.70;99.90;;;;;;5086213;28;19920;-76
2023/09/17 10:55:36;;;;;;;;;;;25.90;99.90;;;;;;5084754;28;19929;-76
2023/09/17 10:58:06;;;;;;;;;;;26.00;99.90;;;;;;5087640;28;20118;-77
2023/09/17 11:00:35;;;;;;;;;;;26.10;99.90;;;;;;5084933;28;19983;-76
2023/09/17 11:03:02;;;;;;;;;;;26.10;99.90;;;;;;5084717;28;19927;-76
2023/09/17 11:05:31;;;;;;;;;;;26.20;99.90;;;;;;5089083;28;20095;-76
2023/09/17 11:08:01;;;;;;;;;;;26.30;99.90;;;;;;5084669;28;19979;-75
2023/09/17 11:10:28;;;;;;;;;;;26.40;99.90;;;;;;5084438;28;20232;-75
2023/09/17 11:12:56;;;;;;;;;;;26.50;99.90;;;;;;5084371;28;19983;-76
2023/09/17 11:15:23;;;;;;;;;;;26.60;99.90;;;;;;5083342;28;19984;-76
2023/09/17 11:17:51;;;;;;;;;;;26.70;99.90;;;;;;5084349;28;19983;-77
2023/09/17 11:20:17;;;;;;;;;;;26.80;99.90;;;;;;5084401;28;19952;-76
2023/09/17 11:22:50;;;;;;;;;;;26.90;99.90;;;;;;5084304;28;19958;-77
2023/09/17 11:25:19;;;;;;;;;;;27.00;99.90;;;;;;5081968;28;19952;-77
2023/09/17 11:27:48;;;;;;;;;;;27.10;99.90;;;;;;5084941;28;19983;-76
2023/09/17 11:30:17;;;;;;;;;;;27.20;99.90;;;;;;5084790;28;19951;-76
2023/09/17 11:32:51;;;;;;;;;;;27.40;99.90;;;;;;5084205;28;20260;-75
2023/09/17 11:35:21;;;;;;;;;;;27.50;99.90;;;;;;5084528;28;20000;-77
2023/09/17 11:37:51;;;;;;;;;;;27.70;99.90;;;;;;5086620;28;20123;-76
2023/09/17 11:40:19;;;;;;;;;;;27.80;99.90;;;;;;5087346;28;19958;-76
2023/09/17 11:42:46;;;;;;;;;;;27.90;99.90;;;;;;5083996;28;20484;-77
2023/09/17 11:45:13;;;;;;;;;;;28.00;99.90;;;;;;5080222;28;20229;-77
2023/09/17 11:47:41;;;;;;;;;;;28.00;99.90;;;;;;5088051;28;20210;-76
2023/09/17 11:50:09;;;;;;;;;;;28.10;99.90;;;;;;5084237;28;19920;-75
2023/09/17 11:52:36;;;;;;;;;;;28.20;99.90;;;;;;5082423;28;20149;-76
2023/09/17 11:55:07;;;;;;;;;;;28.20;99.90;;;;;;5090109;28;19983;-76
2023/09/17 11:57:34;;;;;;;;;;;28.20;99.90;;;;;;5083543;28;20273;-77
2023/09/17 12:00:01;;;;;;;;;;;28.10;99.90;;;;;;5083695;28;19984;-77
2023/09/17 12:02:28;;;;;;;;;;;28.10;99.90;;;;;;5083864;28;20110;-77
2023/09/17 12:04:59;;;;;;;;;;;28.10;99.90;;;;;;5083077;28;19927;-77
2023/09/17 12:07:27;;;;;;;;;;;28.10;99.90;;;;;;5084583;28;19924;-76
2023/09/17 12:10:00;;;;;;;;;;;28.20;99.90;;;;;;5084557;28;19962;-77
2023/09/17 12:12:27;;;;;;;;;;;28.30;99.90;;;;;;5088623;28;19920;-76
2023/09/17 12:14:54;;;;;;;;;;;28.30;99.90;;;;;;5086460;28;19943;-76
2023/09/17 12:17:20;;;;;;;;;;;28.30;99.90;;;;;;5082892;28;19983;-76
2023/09/17 12:19:50;;;;;;;;;;;28.30;99.90;;;;;;5088698;28;19988;-76
2023/09/17 12:22:18;;;;;;;;;;;28.30;99.90;;;;;;5083378;28;19921;-76
2023/09/17 12:25:02;;;;;;;;;;;28.30;99.90;;;;;;5082874;28;19956;-75
2023/09/17 12:27:34;;;;;;;;;;;28.40;99.90;;;;;;5082458;28;19921;-77
2023/09/17 12:30:02;;;;;;;;;;;28.50;99.90;;;;;;5087710;28;19921;-77
2023/09/17 12:32:30;;;;;;;;;;;28.60;99.90;;;;;;5086934;28;19927;-77
2023/09/17 12:34:57;;;;;;;;;;;28.70;99.90;;;;;;5086380;28;19920;-77
2023/09/17 12:37:26;;;;;;;;;;;28.70;99.90;;;;;;5084789;28;19963;-77
2023/09/17 12:39:53;;;;;;;;;;;28.70;99.90;;;;;;5092001;28;20257;-76
2023/09/17 12:42:21;;;;;;;;;;;28.80;99.90;;;;;;5084320;28;19921;-76
2023/09/17 12:44:47;;;;;;;;;;;29.00;99.90;;;;;;5082751;28;19920;-76
2023/09/17 12:47:14;;;;;;;;;;;29.00;99.90;;;;;;5083200;28;19983;-75
2023/09/17 12:49:41;;;;;;;;;;;29.00;99.90;;;;;;5083052;28;20245;-76
2023/09/17 12:52:08;;;;;;;;;;;29.10;99.90;;;;;;5082261;28;19971;-76
2023/09/17 12:54:36;;;;;;;;;;;29.10;99.90;;;;;;5083307;28;19920;-76
2023/09/17 12:57:03;;;;;;;;;;;29.10;99.90;;;;;;5088368;28;19979;-77
2023/09/17 12:59:30;;;;;;;;;;;29.10;99.90;;;;;;5083322;28;19976;-76
2023/09/17 13:01:58;;;;;;;;;;;29.30;99.90;;;;;;5088807;28;19921;-76
2023/09/17 13:04:37;;;;;;;;;;;29.40;99.90;;;;;;5092730;28;20256;-74
2023/09/17 13:07:05;;;;;;;;;;;29.40;99.90;;;;;;5084141;28;19980;-78
2023/09/17 13:09:32;;;;;;;;;;;29.40;99.90;;;;;;5085185;28;19956;-78
2023/09/17 13:12:00;;;;;;;;;;;29.40;99.90;;;;;;5087421;28;19920;-76
2023/09/17 13:14:29;;;;;;;;;;;29.30;99.90;;;;;;5086286;28;20462;-73
2023/09/17 13:16:55;;;;;;;;;;;29.30;99.90;;;;;;5083409;28;19988;-74
2023/09/17 13:19:22;;;;;;;;;;;29.20;99.90;;;;;;5084544;28;19996;-74
2023/09/17 13:21:49;;;;;;;;;;;29.20;99.90;;;;;;5086412;28;19958;-74
2023/09/17 13:24:16;;;;;;;;;;;29.20;99.90;;;;;;5095052;28;19980;-74
2023/09/17 13:26:43;;;;;;;;;;;29.20;99.90;;;;;;5090131;28;19920;-74
2023/09/17 13:29:11;;;;;;;;;;;29.20;99.90;;;;;;5084860;28;20252;-74
2023/09/17 13:31:40;;;;;;;;;;;29.20;99.90;;;;;;5086063;28;19920;-73
2023/09/17 13:34:07;;;;;;;;;;;29.20;99.90;;;;;;5092511;28;19921;-75
2023/09/17 13:36:34;;;;;;;;;;;29.20;99.90;;;;;;5085964;28;19970;-74
2023/09/17 13:39:01;;;;;;;;;;;29.10;99.90;;;;;;5086537;28;19979;-74
2023/09/17 13:41:28;;;;;;;;;;;29.10;99.90;;;;;;5088676;28;19927;-74
2023/09/17 13:43:56;;;;;;;;;;;29.10;99.90;;;;;;5088402;28;19920;-75
2023/09/17 13:46:24;;;;;;;;;;;29.20;99.90;;;;;;5085729;28;19924;-75
2023/09/17 13:48:51;;;;;;;;;;;29.30;99.90;;;;;;5086065;28;19929;-74
2023/09/17 13:51:17;;;;;;;;;;;29.30;99.90;;;;;;5091493;28;19920;-74
2023/09/17 13:53:44;;;;;;;;;;;29.30;99.90;;;;;;5086095;28;20309;-75
2023/09/17 13:56:11;;;;;;;;;;;29.50;99.90;;;;;;5090732;28;19920;-75
2023/09/17 13:58:37;;;;;;;;;;;29.60;99.90;;;;;;5086007;28;19920;-74
2023/09/17 14:01:05;;;;;;;;;;;29.70;99.90;;;;;;5084875;28;20158;-74
2023/09/17 14:03:33;;;;;;;;;;;29.80;99.90;;;;;;5085886;28;19920;-74
2023/09/17 14:06:00;;;;;;;;;;;29.90;99.90;;;;;;5085410;28;19988;-72
2023/09/17 14:08:29;;;;;;;;;;;30.00;99.90;;;;;;5085815;28;19920;-70
2023/09/17 14:10:56;;;;;;;;;;;30.00;99.90;;;;;;5090945;28;19984;-75
2023/09/17 14:13:23;;;;;;;;;;;30.10;99.90;;;;;;5085653;28;19928;-75
2023/09/17 14:15:49;;;;;;;;;;;30.10;99.90;;;;;;5084869;28;19927;-75
2023/09/17 14:18:16;;;;;;;;;;;30.10;99.90;;;;;;5085664;28;19991;-76